• Join FlightAware (Why Join?)
  • Login
  • US Flag 
07:21AM EDT


 

Airport Tracker/Info


-or-


 

Live Flight TrackerFlight Track Log ✈ FLG3651 ✈ 13-Apr-2013 ✈ KBNA - KDTW

Flight Track Log - Related Links

Times and Time Zones

All times are in EDT time to prevent confusion due to time zone crossing. See the FLG3651 flight status page for this flight to view local times or setup timezone preferences in your user account.

Time Position Orientation Groundspeed Altitude Reporting Facility
EDT Latitude Longitude Course Direction KTS MPH feet Rate Location/Type
05:42PM 36.2167 -86.6500 39° Northeast 218 251 3,700  Level Nashville TRACON
05:42PM 36.2333 -86.6333 39° Northeast 245 282 4,200 2,400 Climbing Nashville TRACON
05:43PM 36.3167 -86.6500 351° North 269 310 7,300 2,700 Climbing Nashville TRACON
05:44PM 36.3936 -86.6756 345° North 280 322 10,300 1,800 Climbing Memphis Center
05:45PM 36.4797 -86.7000 347° North 293 337 11,400 1,560 Climbing Memphis Center
05:46PM 36.5681 -86.7269 346° North 317 365 13,500 1,980 Climbing Memphis Center
05:47PM 36.6644 -86.7381 355° North 341 392 15,400 1,680 Climbing Memphis Center
05:48PM 36.7625 -86.7414 358° North 355 409 16,900 1,380 Climbing Memphis Center
05:49PM 36.8731 -86.7494 357° North 360 414 18,200 1,440 Climbing Memphis Center
05:50PM 36.9775 -86.7603 355° North 366 421 19,800 1,020 Climbing Memphis Center
05:52PM 37.1681 -86.7736 357° North 393 452 21,200 840 Climbing Indianapolis Center
05:53PM 37.2803 -86.7839 356° North 400 460 22,400 1,140 Climbing Indianapolis Center
05:54PM 37.3917 -86.7981 354° North 398 458 23,600 1,020 Climbing Indianapolis Center
05:55PM 37.5072 -86.7828 North 417 480 24,500 720 Climbing Indianapolis Center
05:56PM 37.6389 -86.7603 North 429 494 25,200 720 Climbing Indianapolis Center
05:57PM 37.7586 -86.7400 North 434 499 26,000 720 Climbing Indianapolis Center
05:58PM 37.8800 -86.7197 North 438 504 26,700 480 Climbing Indianapolis Center
05:59PM 38.0006 -86.6975 North 438 504 27,000 120 Climbing Indianapolis Center
06:00PM 38.1256 -86.6750 North 451 519 27,000  Level Indianapolis Center
06:01PM 38.2744 -86.6494 North 452 520 27,000  Level Indianapolis Center
06:02PM 38.3958 -86.6267 North 445 512 27,000  Level Indianapolis Center
06:03PM 38.5164 -86.6056 North 439 505 27,000  Level Indianapolis Center
06:04PM 38.6339 -86.5703 13° North 438 504 27,000  Level Indianapolis Center
06:05PM 38.7508 -86.5175 19° North 444 511 27,000  Level Indianapolis Center
06:07PM 38.8672 -86.4614 21° North 445 512 27,000  Level Indianapolis Center
06:08PM 38.9844 -86.4081 19° North 446 513 27,000  Level Indianapolis Center
06:09PM 39.1289 -86.3386 20° North 458 527 27,000  Level Indianapolis Center
06:10PM 39.2469 -86.3325 North 426 490 27,000  Level Indianapolis Center
06:11PM 39.3650 -86.3428 356° North 421 484 27,000  Level Indianapolis Center
06:12PM 39.4847 -86.3111 12° North 465 535 27,000  Level Indianapolis Center
06:13PM 39.6047 -86.2222 30° Northeast 495 570 27,000  Level Indianapolis Center
06:14PM 39.7239 -86.1322 30° Northeast 494 568 27,000  Level Indianapolis Center
06:15PM 39.8439 -86.0442 29° Northeast 493 567 27,000  Level Indianapolis Center
06:16PM 39.9633 -85.9553 30° Northeast 492 566 27,000  Level Indianapolis Center
06:17PM 40.0942 -85.8581 30° Northeast 480 552 27,000  Level Indianapolis Center
06:17PM 40.1467 -85.8189 30° Northeast 479 551 27,000  Level Chicago Center
06:18PM 40.2625 -85.7325 30° Northeast 478 550 27,000 -540 Level Chicago Center
06:19PM 40.3783 -85.6456 30° Northeast 480 552 25,900 -1,140 Descending Chicago Center
06:20PM 40.4914 -85.5600 30° Northeast 476 548 24,700 -960 Descending Chicago Center
06:21PM 40.5989 -85.4778 30° Northeast 457 526 24,000 -360 Descending Chicago Center
06:22PM 40.7253 -85.3844 29° Northeast 440 506 24,000 -300 Level Chicago Center
06:23PM 40.8336 -85.3019 30° Northeast 445 512 23,400 -840 Descending Chicago Center
06:24PM 40.9411 -85.2186 30° Northeast 450 518 22,300 -1,080 Descending Chicago Center
06:25PM 41.0408 -85.1203 37° Northeast 457 526 21,200 -660 Descending Chicago Center
06:27PM 41.1372 -85.0203 38° Northeast 448 516 21,000 -120 Descending Chicago Center
06:28PM 41.2325 -84.9169 39° Northeast 445 512 21,000  Level Chicago Center
06:29PM 41.3450 -84.7936 39° Northeast 441 507 21,000  Level Chicago Center
06:30PM 41.4267 -84.6667 49° Northeast 454 522 21,000  Level Chicago Center
06:31PM 41.5094 -84.5381 49° Northeast 459 528 21,000  Level Chicago Center
06:31PM 41.5300 -84.5083 47° Northeast 452 520 21,000 -1,860 Level Cleveland Center
06:32PM 41.6114 -84.3828 49° Northeast 452 520 18,700 -2,700 Descending Cleveland Center
06:32PM 41.6508 -84.3183 51° Northeast 447 514 17,300 -3,180 Descending Cleveland Center
06:33PM 41.6972 -84.2458 49° Northeast 425 489 15,600 -2,520 Descending Cleveland Center
06:34PM 41.7608 -84.1464 49° Northeast 409 471 13,500 -1,920 Descending Cleveland Center
06:35PM 41.8353 -84.0225 51° Northeast 402 463 12,000 -720 Descending Cleveland Center
06:36PM 41.9181 -83.9042 47° Northeast 398 458 12,000  Level Cleveland Center
06:37PM 42.0031 -83.7717 49° Northeast 413 475 12,000  Level Cleveland Center
06:38PM 42.0642 -83.6794 48° Northeast 399 459 12,000  Level Cleveland Center
06:39PM 42.1481 -83.5847 40° Northeast 347 399 12,000  Level FAA TRACON SMA TRACON (SMA)
06:39PM 42.1714 -83.5639 33° Northeast 319 367 12,000  Level FAA TRACON SMA TRACON (SMA)
06:40PM 42.1989 -83.5394 33° Northeast 299 344 12,000  Level FAA TRACON SMA TRACON (SMA)
06:40PM 42.2197 -83.5225 31° Northeast 284 327 12,000 -600 Level FAA TRACON SMA TRACON (SMA)
06:40PM 42.2400 -83.5072 29° Northeast 273 314 11,600 -1,500 Descending FAA TRACON SMA TRACON (SMA)
06:41PM 42.2653 -83.4883 29° Northeast 270 311 11,000 -1,500 Descending FAA TRACON SMA TRACON (SMA)
06:41PM 42.2850 -83.4747 27° Northeast 258 297 10,600 -1,680 Descending FAA TRACON SMA TRACON (SMA)
06:41PM 42.3094 -83.4569 28° Northeast 258 297 9,900 -1,980 Descending FAA TRACON SMA TRACON (SMA)
06:42PM 42.3283 -83.4436 28° Northeast 253 291 9,300 -1,740 Descending FAA TRACON SMA TRACON (SMA)
06:42PM 42.3467 -83.4314 26° Northeast 241 277 8,800 -1,800 Descending FAA TRACON SMA TRACON (SMA)
06:42PM 42.3692 -83.4167 26° Northeast 236 272 8,100 -1,800 Descending FAA TRACON SMA TRACON (SMA)
06:43PM 42.3875 -83.4058 24° Northeast 236 272 7,600 -1,380 Descending FAA TRACON SMA TRACON (SMA)
06:43PM 42.4061 -83.3944 24° Northeast 239 275 7,200 -1,200 Descending FAA TRACON SMA TRACON (SMA)
06:43PM 42.4294 -83.3806 24° Northeast 240 276 6,800 -1,200 Descending FAA TRACON SMA TRACON (SMA)
06:44PM 42.4467 -83.3653 33° Northeast 247 284 6,400 -1,320 Descending FAA TRACON SMA TRACON (SMA)
06:44PM 42.4547 -83.3386 68° East 257 296 5,900 -1,740 Descending FAA TRACON SMA TRACON (SMA)
06:44PM 42.4483 -83.3033 104° East 261 300 5,300 -1,800 Descending FAA TRACON SMA TRACON (SMA)
06:45PM 42.4347 -83.2831 132° Southeast 235 270 4,700 -1,680 Descending FAA TRACON SMA TRACON (SMA)
06:45PM 42.4133 -83.2778 170° South 218 251 4,200 -1,380 Descending FAA TRACON SMA TRACON (SMA)
06:45PM 42.3956 -83.2758 175° South 220 253 3,800 -1,380 Descending FAA TRACON SMA TRACON (SMA)
06:46PM 42.3739 -83.2736 176° South 221 254 3,300 -1,260 Descending FAA TRACON SMA TRACON (SMA)
06:46PM 42.3558 -83.2758 185° South 211 243 3,000 -480 Descending FAA TRACON SMA TRACON (SMA)
06:46PM 42.3361 -83.2833 196° South 206 237 3,000 -180 Level FAA TRACON SMA TRACON (SMA)
06:47PM 42.3181 -83.2967 209° Southwest 193 222 2,900 -600 Descending FAA TRACON SMA TRACON (SMA)
06:47PM 42.3058 -83.3072 213° Southwest 182 209 2,600 -900 Descending FAA TRACON SMA TRACON (SMA)